sensor_id;sensor_type;location;lat;lon;timestamp;P1;durP1;ratioP1;P2;durP2;ratioP2
43152;SDS011;28756;49.064;9.290;2024-02-21T00:01:07;12.75;;;5.20;;
43152;SDS011;28756;49.064;9.290;2024-02-21T00:03:33;11.35;;;4.80;;
43152;SDS011;28756;49.064;9.290;2024-02-21T00:05:59;11.02;;;4.60;;
43152;SDS011;28756;49.064;9.290;2024-02-21T00:08:25;11.15;;;4.68;;
43152;SDS011;28756;49.064;9.290;2024-02-21T00:10:51;10.75;;;5.00;;
43152;SDS011;28756;49.064;9.290;2024-02-21T00:13:16;11.90;;;4.75;;
43152;SDS011;28756;49.064;9.290;2024-02-21T00:15:42;9.70;;;5.07;;
43152;SDS011;28756;49.064;9.290;2024-02-21T00:18:08;9.93;;;4.55;;
43152;SDS011;28756;49.064;9.290;2024-02-21T00:20:35;9.77;;;4.47;;
43152;SDS011;28756;49.064;9.290;2024-02-21T00:23:02;11.75;;;3.90;;
43152;SDS011;28756;49.064;9.290;2024-02-21T00:25:28;8.52;;;4.07;;
43152;SDS011;28756;49.064;9.290;2024-02-21T00:27:54;8.98;;;3.92;;
43152;SDS011;28756;49.064;9.290;2024-02-21T00:30:20;11.40;;;4.18;;
43152;SDS011;28756;49.064;9.290;2024-02-21T00:32:46;7.95;;;3.95;;
43152;SDS011;28756;49.064;9.290;2024-02-21T00:35:13;8.23;;;3.85;;
43152;SDS011;28756;49.064;9.290;2024-02-21T00:37:39;7.32;;;3.70;;
43152;SDS011;28756;49.064;9.290;2024-02-21T00:40:05;8.15;;;4.00;;
43152;SDS011;28756;49.064;9.290;2024-02-21T00:42:35;7.70;;;4.65;;
43152;SDS011;28756;49.064;9.290;2024-02-21T00:45:03;10.15;;;4.18;;
43152;SDS011;28756;49.064;9.290;2024-02-21T00:47:30;10.48;;;3.83;;
43152;SDS011;28756;49.064;9.290;2024-02-21T00:49:55;7.18;;;3.70;;
43152;SDS011;28756;49.064;9.290;2024-02-21T00:52:21;9.32;;;3.75;;
43152;SDS011;28756;49.064;9.290;2024-02-21T00:54:47;9.82;;;3.78;;
43152;SDS011;28756;49.064;9.290;2024-02-21T00:57:14;10.23;;;4.00;;
43152;SDS011;28756;49.064;9.290;2024-02-21T00:59:40;9.88;;;3.58;;
43152;SDS011;28756;49.064;9.290;2024-02-21T01:02:07;9.85;;;3.70;;
43152;SDS011;28756;49.064;9.290;2024-02-21T01:04:34;8.95;;;3.65;;
43152;SDS011;28756;49.064;9.290;2024-02-21T01:07:00;7.97;;;3.50;;
43152;SDS011;28756;49.064;9.290;2024-02-21T01:09:26;8.88;;;3.40;;
43152;SDS011;28756;49.064;9.290;2024-02-21T01:11:51;10.27;;;3.65;;
43152;SDS011;28756;49.064;9.290;2024-02-21T01:14:18;8.70;;;3.70;;
43152;SDS011;28756;49.064;9.290;2024-02-21T01:16:44;9.02;;;3.25;;
43152;SDS011;28756;49.064;9.290;2024-02-21T01:19:09;7.90;;;3.42;;
43152;SDS011;28756;49.064;9.290;2024-02-21T01:21:35;8.40;;;3.25;;
43152;SDS011;28756;49.064;9.290;2024-02-21T01:24:01;7.80;;;3.08;;
43152;SDS011;28756;49.064;9.290;2024-02-21T01:26:27;8.65;;;3.15;;
43152;SDS011;28756;49.064;9.290;2024-02-21T01:28:53;8.13;;;3.30;;
43152;SDS011;28756;49.064;9.290;2024-02-21T01:31:18;6.20;;;2.88;;
43152;SDS011;28756;49.064;9.290;2024-02-21T01:33:45;7.03;;;3.47;;
43152;SDS011;28756;49.064;9.290;2024-02-21T01:36:10;8.85;;;3.20;;
43152;SDS011;28756;49.064;9.290;2024-02-21T01:38:36;7.70;;;3.33;;
43152;SDS011;28756;49.064;9.290;2024-02-21T01:41:02;6.95;;;3.13;;
43152;SDS011;28756;49.064;9.290;2024-02-21T01:43:28;8.52;;;3.10;;
43152;SDS011;28756;49.064;9.290;2024-02-21T01:45:55;7.70;;;3.22;;
43152;SDS011;28756;49.064;9.290;2024-02-21T01:48:22;8.98;;;3.08;;
43152;SDS011;28756;49.064;9.290;2024-02-21T01:50:49;5.03;;;2.50;;
43152;SDS011;28756;49.064;9.290;2024-02-21T01:53:17;6.32;;;3.03;;
43152;SDS011;28756;49.064;9.290;2024-02-21T01:55:56;6.57;;;2.75;;
43152;SDS011;28756;49.064;9.290;2024-02-21T01:58:22;9.23;;;3.58;;
43152;SDS011;28756;49.064;9.290;2024-02-21T02:00:50;10.10;;;3.80;;
43152;SDS011;28756;49.064;9.290;2024-02-21T02:03:17;6.25;;;3.35;;
43152;SDS011;28756;49.064;9.290;2024-02-21T02:05:46;6.50;;;2.88;;
43152;SDS011;28756;49.064;9.290;2024-02-21T02:08:14;8.00;;;3.28;;
43152;SDS011;28756;49.064;9.290;2024-02-21T02:10:41;7.00;;;3.10;;
43152;SDS011;28756;49.064;9.290;2024-02-21T02:13:07;5.07;;;3.03;;
43152;SDS011;28756;49.064;9.290;2024-02-21T02:18:13;6.70;;;3.17;;
43152;SDS011;28756;49.064;9.290;2024-02-21T02:20:41;6.63;;;2.80;;
43152;SDS011;28756;49.064;9.290;2024-02-21T02:23:51;6.60;;;3.10;;
43152;SDS011;28756;49.064;9.290;2024-02-21T02:26:05;6.50;;;2.72;;
43152;SDS011;28756;49.064;9.290;2024-02-21T02:28:32;7.05;;;2.60;;
43152;SDS011;28756;49.064;9.290;2024-02-21T02:30:58;8.07;;;3.13;;
43152;SDS011;28756;49.064;9.290;2024-02-21T02:33:24;7.30;;;3.28;;
43152;SDS011;28756;49.064;9.290;2024-02-21T02:35:49;8.02;;;3.30;;
43152;SDS011;28756;49.064;9.290;2024-02-21T02:38:15;8.77;;;3.53;;
43152;SDS011;28756;49.064;9.290;2024-02-21T02:40:41;8.68;;;3.28;;
43152;SDS011;28756;49.064;9.290;2024-02-21T02:43:07;8.40;;;3.20;;
43152;SDS011;28756;49.064;9.290;2024-02-21T02:45:33;7.80;;;3.20;;
43152;SDS011;28756;49.064;9.290;2024-02-21T02:47:59;6.35;;;2.78;;
43152;SDS011;28756;49.064;9.290;2024-02-21T02:50:26;7.38;;;3.22;;
43152;SDS011;28756;49.064;9.290;2024-02-21T02:52:53;5.25;;;2.60;;
43152;SDS011;28756;49.064;9.290;2024-02-21T02:55:19;5.45;;;2.70;;
43152;SDS011;28756;49.064;9.290;2024-02-21T02:57:45;5.35;;;2.63;;
43152;SDS011;28756;49.064;9.290;2024-02-21T03:00:12;4.47;;;2.15;;
43152;SDS011;28756;49.064;9.290;2024-02-21T03:02:40;5.65;;;2.55;;
43152;SDS011;28756;49.064;9.290;2024-02-21T03:05:11;7.05;;;2.90;;
43152;SDS011;28756;49.064;9.290;2024-02-21T03:07:42;7.05;;;3.50;;
43152;SDS011;28756;49.064;9.290;2024-02-21T03:10:08;5.45;;;2.80;;
43152;SDS011;28756;49.064;9.290;2024-02-21T03:12:38;8.73;;;3.13;;
43152;SDS011;28756;49.064;9.290;2024-02-21T03:15:05;8.02;;;3.70;;
43152;SDS011;28756;49.064;9.290;2024-02-21T03:17:31;7.55;;;3.08;;
43152;SDS011;28756;49.064;9.290;2024-02-21T03:19:59;5.72;;;2.80;;
43152;SDS011;28756;49.064;9.290;2024-02-21T03:22:30;5.53;;;2.75;;
43152;SDS011;28756;49.064;9.290;2024-02-21T03:25:00;7.25;;;2.83;;
43152;SDS011;28756;49.064;9.290;2024-02-21T03:27:26;4.82;;;2.80;;
43152;SDS011;28756;49.064;9.290;2024-02-21T03:29:52;5.55;;;2.60;;
43152;SDS011;28756;49.064;9.290;2024-02-21T03:32:18;6.95;;;3.60;;
43152;SDS011;28756;49.064;9.290;2024-02-21T03:34:43;8.95;;;3.20;;
43152;SDS011;28756;49.064;9.290;2024-02-21T03:37:09;6.47;;;3.03;;
43152;SDS011;28756;49.064;9.290;2024-02-21T03:39:35;6.75;;;2.92;;
43152;SDS011;28756;49.064;9.290;2024-02-21T03:42:02;6.78;;;2.40;;
43152;SDS011;28756;49.064;9.290;2024-02-21T03:44:30;7.40;;;3.25;;
43152;SDS011;28756;49.064;9.290;2024-02-21T03:46:57;7.72;;;3.20;;
43152;SDS011;28756;49.064;9.290;2024-02-21T03:49:24;9.43;;;3.45;;
43152;SDS011;28756;49.064;9.290;2024-02-21T03:51:50;9.65;;;3.67;;
43152;SDS011;28756;49.064;9.290;2024-02-21T03:54:16;8.88;;;3.35;;
43152;SDS011;28756;49.064;9.290;2024-02-21T03:56:41;11.15;;;3.55;;
43152;SDS011;28756;49.064;9.290;2024-02-21T03:59:07;5.90;;;3.50;;
43152;SDS011;28756;49.064;9.290;2024-02-21T04:01:36;10.07;;;3.70;;
43152;SDS011;28756;49.064;9.290;2024-02-21T04:04:02;7.55;;;3.55;;
43152;SDS011;28756;49.064;9.290;2024-02-21T04:06:28;7.95;;;3.10;;
43152;SDS011;28756;49.064;9.290;2024-02-21T04:08:54;6.18;;;3.15;;
43152;SDS011;28756;49.064;9.290;2024-02-21T04:11:20;8.93;;;3.33;;
43152;SDS011;28756;49.064;9.290;2024-02-21T04:13:46;9.70;;;3.30;;
43152;SDS011;28756;49.064;9.290;2024-02-21T04:16:14;7.78;;;3.20;;
43152;SDS011;28756;49.064;9.290;2024-02-21T04:18:41;8.25;;;3.88;;
43152;SDS011;28756;49.064;9.290;2024-02-21T04:21:08;11.45;;;3.13;;
43152;SDS011;28756;49.064;9.290;2024-02-21T04:23:34;10.48;;;3.40;;
43152;SDS011;28756;49.064;9.290;2024-02-21T04:26:00;9.10;;;3.10;;
43152;SDS011;28756;49.064;9.290;2024-02-21T04:28:26;7.63;;;3.00;;
43152;SDS011;28756;49.064;9.290;2024-02-21T04:30:52;9.13;;;3.17;;
43152;SDS011;28756;49.064;9.290;2024-02-21T04:33:18;8.32;;;2.75;;
43152;SDS011;28756;49.064;9.290;2024-02-21T04:35:43;5.03;;;2.78;;
43152;SDS011;28756;49.064;9.290;2024-02-21T04:38:09;7.38;;;3.20;;
43152;SDS011;28756;49.064;9.290;2024-02-21T04:40:35;7.30;;;2.85;;
43152;SDS011;28756;49.064;9.290;2024-02-21T04:43:01;6.00;;;2.97;;
43152;SDS011;28756;49.064;9.290;2024-02-21T04:45:27;7.53;;;2.97;;
43152;SDS011;28756;49.064;9.290;2024-02-21T04:47:52;5.68;;;2.63;;
43152;SDS011;28756;49.064;9.290;2024-02-21T04:50:18;6.43;;;2.78;;
43152;SDS011;28756;49.064;9.290;2024-02-21T04:52:44;5.50;;;2.90;;
43152;SDS011;28756;49.064;9.290;2024-02-21T04:55:10;3.95;;;2.33;;
43152;SDS011;28756;49.064;9.290;2024-02-21T04:57:36;5.50;;;2.80;;
43152;SDS011;28756;49.064;9.290;2024-02-21T05:00:01;5.07;;;2.38;;
43152;SDS011;28756;49.064;9.290;2024-02-21T05:02:28;6.30;;;2.78;;
43152;SDS011;28756;49.064;9.290;2024-02-21T05:04:55;6.63;;;3.05;;
43152;SDS011;28756;49.064;9.290;2024-02-21T05:07:21;6.85;;;2.90;;
43152;SDS011;28756;49.064;9.290;2024-02-21T05:09:47;6.18;;;2.60;;
43152;SDS011;28756;49.064;9.290;2024-02-21T05:12:13;4.50;;;2.35;;
43152;SDS011;28756;49.064;9.290;2024-02-21T05:14:39;5.78;;;2.88;;
43152;SDS011;28756;49.064;9.290;2024-02-21T05:17:05;5.95;;;2.50;;
43152;SDS011;28756;49.064;9.290;2024-02-21T05:19:31;7.10;;;2.42;;
43152;SDS011;28756;49.064;9.290;2024-02-21T05:21:56;8.38;;;3.13;;
43152;SDS011;28756;49.064;9.290;2024-02-21T05:24:24;9.27;;;3.22;;
43152;SDS011;28756;49.064;9.290;2024-02-21T05:26:50;7.40;;;2.70;;
43152;SDS011;28756;49.064;9.290;2024-02-21T05:29:17;7.43;;;3.00;;
43152;SDS011;28756;49.064;9.290;2024-02-21T05:34:18;5.25;;;2.75;;
43152;SDS011;28756;49.064;9.290;2024-02-21T05:36:45;7.93;;;3.35;;
43152;SDS011;28756;49.064;9.290;2024-02-21T05:39:11;7.18;;;3.05;;
43152;SDS011;28756;49.064;9.290;2024-02-21T05:41:38;7.85;;;3.40;;
43152;SDS011;28756;49.064;9.290;2024-02-21T05:44:04;6.50;;;3.15;;
43152;SDS011;28756;49.064;9.290;2024-02-21T05:46:30;7.10;;;3.35;;
43152;SDS011;28756;49.064;9.290;2024-02-21T05:48:56;7.60;;;3.13;;
43152;SDS011;28756;49.064;9.290;2024-02-21T05:51:21;6.18;;;3.35;;
43152;SDS011;28756;49.064;9.290;2024-02-21T05:53:47;10.80;;;3.60;;
43152;SDS011;28756;49.064;9.290;2024-02-21T05:56:13;6.28;;;3.35;;
43152;SDS011;28756;49.064;9.290;2024-02-21T05:58:39;4.97;;;3.05;;
43152;SDS011;28756;49.064;9.290;2024-02-21T06:01:05;7.63;;;2.97;;
43152;SDS011;28756;49.064;9.290;2024-02-21T06:03:35;7.65;;;2.90;;
43152;SDS011;28756;49.064;9.290;2024-02-21T06:06:03;6.93;;;2.92;;
43152;SDS011;28756;49.064;9.290;2024-02-21T06:08:30;6.63;;;3.35;;
43152;SDS011;28756;49.064;9.290;2024-02-21T06:10:56;9.90;;;3.17;;
43152;SDS011;28756;49.064;9.290;2024-02-21T06:13:23;6.13;;;3.30;;
43152;SDS011;28756;49.064;9.290;2024-02-21T06:15:49;7.25;;;3.28;;
43152;SDS011;28756;49.064;9.290;2024-02-21T06:18:17;6.90;;;3.58;;
43152;SDS011;28756;49.064;9.290;2024-02-21T06:20:43;6.50;;;3.03;;
43152;SDS011;28756;49.064;9.290;2024-02-21T06:23:11;6.55;;;2.97;;
43152;SDS011;28756;49.064;9.290;2024-02-21T06:25:42;8.45;;;3.13;;
43152;SDS011;28756;49.064;9.290;2024-02-21T06:28:08;7.43;;;2.95;;
43152;SDS011;28756;49.064;9.290;2024-02-21T06:30:35;7.22;;;2.97;;
43152;SDS011;28756;49.064;9.290;2024-02-21T06:33:01;5.45;;;2.95;;
43152;SDS011;28756;49.064;9.290;2024-02-21T06:35:27;6.57;;;3.08;;
43152;SDS011;28756;49.064;9.290;2024-02-21T06:37:54;6.30;;;3.38;;
43152;SDS011;28756;49.064;9.290;2024-02-21T06:40:23;9.07;;;3.45;;
43152;SDS011;28756;49.064;9.290;2024-02-21T06:42:52;7.95;;;3.58;;
43152;SDS011;28756;49.064;9.290;2024-02-21T06:45:21;7.00;;;3.65;;
43152;SDS011;28756;49.064;9.290;2024-02-21T06:47:47;5.28;;;3.00;;
43152;SDS011;28756;49.064;9.290;2024-02-21T06:50:13;5.63;;;3.00;;
43152;SDS011;28756;49.064;9.290;2024-02-21T06:52:41;6.35;;;3.15;;
43152;SDS011;28756;49.064;9.290;2024-02-21T06:55:06;8.50;;;3.38;;
43152;SDS011;28756;49.064;9.290;2024-02-21T06:57:32;5.18;;;3.13;;
43152;SDS011;28756;49.064;9.290;2024-02-21T06:59:58;8.70;;;3.60;;
43152;SDS011;28756;49.064;9.290;2024-02-21T07:02:30;5.35;;;2.95;;
43152;SDS011;28756;49.064;9.290;2024-02-21T07:05:04;6.28;;;2.88;;
43152;SDS011;28756;49.064;9.290;2024-02-21T07:07:30;8.02;;;3.22;;
43152;SDS011;28756;49.064;9.290;2024-02-21T07:09:56;4.72;;;2.75;;
43152;SDS011;28756;49.064;9.290;2024-02-21T07:12:22;5.88;;;2.90;;
43152;SDS011;28756;49.064;9.290;2024-02-21T07:14:47;4.97;;;3.08;;
43152;SDS011;28756;49.064;9.290;2024-02-21T07:17:13;7.25;;;3.22;;
43152;SDS011;28756;49.064;9.290;2024-02-21T07:19:39;6.93;;;3.10;;
43152;SDS011;28756;49.064;9.290;2024-02-21T07:22:05;6.70;;;3.20;;
43152;SDS011;28756;49.064;9.290;2024-02-21T07:24:30;9.85;;;3.28;;
43152;SDS011;28756;49.064;9.290;2024-02-21T07:26:56;10.63;;;3.22;;
43152;SDS011;28756;49.064;9.290;2024-02-21T07:29:22;5.75;;;2.70;;
43152;SDS011;28756;49.064;9.290;2024-02-21T07:31:48;8.45;;;3.20;;
43152;SDS011;28756;49.064;9.290;2024-02-21T07:34:14;6.57;;;2.83;;
43152;SDS011;28756;49.064;9.290;2024-02-21T07:36:40;7.35;;;3.15;;
43152;SDS011;28756;49.064;9.290;2024-02-21T07:39:07;7.65;;;3.10;;
43152;SDS011;28756;49.064;9.290;2024-02-21T07:41:33;6.78;;;3.42;;
43152;SDS011;28756;49.064;9.290;2024-02-21T07:43:59;8.27;;;3.22;;
43152;SDS011;28756;49.064;9.290;2024-02-21T07:46:25;6.05;;;2.97;;
43152;SDS011;28756;49.064;9.290;2024-02-21T07:48:51;11.88;;;3.80;;
43152;SDS011;28756;49.064;9.290;2024-02-21T07:51:17;8.77;;;4.03;;
43152;SDS011;28756;49.064;9.290;2024-02-21T07:53:43;12.38;;;4.45;;
43152;SDS011;28756;49.064;9.290;2024-02-21T07:56:19;8.13;;;3.65;;
43152;SDS011;28756;49.064;9.290;2024-02-21T07:58:45;7.45;;;3.70;;
43152;SDS011;28756;49.064;9.290;2024-02-21T08:01:10;6.05;;;2.90;;
43152;SDS011;28756;49.064;9.290;2024-02-21T08:03:36;5.90;;;3.05;;
43152;SDS011;28756;49.064;9.290;2024-02-21T08:06:02;7.22;;;3.22;;
43152;SDS011;28756;49.064;9.290;2024-02-21T08:08:28;10.82;;;3.92;;
43152;SDS011;28756;49.064;9.290;2024-02-21T08:10:55;9.00;;;3.80;;
43152;SDS011;28756;49.064;9.290;2024-02-21T08:13:20;9.13;;;3.72;;
43152;SDS011;28756;49.064;9.290;2024-02-21T08:15:46;8.15;;;3.30;;
43152;SDS011;28756;49.064;9.290;2024-02-21T08:18:12;6.57;;;3.03;;
43152;SDS011;28756;49.064;9.290;2024-02-21T08:20:38;12.77;;;4.50;;
43152;SDS011;28756;49.064;9.290;2024-02-21T08:23:03;10.95;;;5.00;;
43152;SDS011;28756;49.064;9.290;2024-02-21T08:25:29;19.15;;;6.90;;
43152;SDS011;28756;49.064;9.290;2024-02-21T08:27:57;12.18;;;5.05;;
43152;SDS011;28756;49.064;9.290;2024-02-21T08:30:38;9.77;;;4.00;;
43152;SDS011;28756;49.064;9.290;2024-02-21T08:33:04;7.57;;;3.60;;
43152;SDS011;28756;49.064;9.290;2024-02-21T08:35:30;9.05;;;3.03;;
43152;SDS011;28756;49.064;9.290;2024-02-21T08:37:56;6.72;;;2.65;;
43152;SDS011;28756;49.064;9.290;2024-02-21T08:40:23;7.80;;;2.65;;
43152;SDS011;28756;49.064;9.290;2024-02-21T08:42:52;8.35;;;3.65;;
43152;SDS011;28756;49.064;9.290;2024-02-21T08:45:18;7.00;;;3.00;;
43152;SDS011;28756;49.064;9.290;2024-02-21T08:47:44;6.03;;;2.60;;
43152;SDS011;28756;49.064;9.290;2024-02-21T08:55:46;7.15;;;2.38;;
43152;SDS011;28756;49.064;9.290;2024-02-21T08:58:11;5.38;;;2.63;;
43152;SDS011;28756;49.064;9.290;2024-02-21T09:01:14;7.20;;;2.80;;
43152;SDS011;28756;49.064;9.290;2024-02-21T09:03:43;4.97;;;2.00;;
43152;SDS011;28756;49.064;9.290;2024-02-21T09:06:28;10.10;;;2.55;;
43152;SDS011;28756;49.064;9.290;2024-02-21T09:08:58;6.03;;;2.40;;
43152;SDS011;28756;49.064;9.290;2024-02-21T09:11:47;11.50;;;3.67;;
43152;SDS011;28756;49.064;9.290;2024-02-21T09:14:13;6.30;;;2.53;;
43152;SDS011;28756;49.064;9.290;2024-02-21T09:16:39;5.57;;;2.20;;
43152;SDS011;28756;49.064;9.290;2024-02-21T09:19:17;5.70;;;2.28;;
43152;SDS011;28756;49.064;9.290;2024-02-21T09:22:06;8.50;;;2.40;;
43152;SDS011;28756;49.064;9.290;2024-02-21T09:24:35;5.78;;;2.60;;
43152;SDS011;28756;49.064;9.290;2024-02-21T09:27:10;7.13;;;2.25;;
43152;SDS011;28756;49.064;9.290;2024-02-21T09:29:38;5.28;;;2.30;;
43152;SDS011;28756;49.064;9.290;2024-02-21T09:32:07;5.45;;;2.20;;
43152;SDS011;28756;49.064;9.290;2024-02-21T09:37:53;6.70;;;2.13;;
43152;SDS011;28756;49.064;9.290;2024-02-21T09:40:23;4.60;;;2.45;;
43152;SDS011;28756;49.064;9.290;2024-02-21T09:42:57;7.95;;;2.22;;
43152;SDS011;28756;49.064;9.290;2024-02-21T09:45:36;8.40;;;2.88;;
43152;SDS011;28756;49.064;9.290;2024-02-21T09:48:18;5.43;;;2.25;;
43152;SDS011;28756;49.064;9.290;2024-02-21T09:51:12;5.07;;;2.00;;
43152;SDS011;28756;49.064;9.290;2024-02-21T09:53:51;10.23;;;2.83;;
43152;SDS011;28756;49.064;9.290;2024-02-21T09:56:18;5.13;;;2.30;;
43152;SDS011;28756;49.064;9.290;2024-02-21T09:58:44;4.93;;;2.20;;
43152;SDS011;28756;49.064;9.290;2024-02-21T10:01:12;7.00;;;2.30;;
43152;SDS011;28756;49.064;9.290;2024-02-21T10:03:40;5.28;;;2.03;;
43152;SDS011;28756;49.064;9.290;2024-02-21T10:06:21;5.07;;;2.00;;
43152;SDS011;28756;49.064;9.290;2024-02-21T10:09:02;5.18;;;2.03;;
43152;SDS011;28756;49.064;9.290;2024-02-21T10:11:46;6.32;;;2.28;;
43152;SDS011;28756;49.064;9.290;2024-02-21T10:14:35;4.30;;;2.13;;
43152;SDS011;28756;49.064;9.290;2024-02-21T10:17:04;6.40;;;2.13;;
43152;SDS011;28756;49.064;9.290;2024-02-21T10:19:43;5.20;;;1.80;;
43152;SDS011;28756;49.064;9.290;2024-02-21T10:22:17;4.90;;;2.03;;
43152;SDS011;28756;49.064;9.290;2024-02-21T10:24:43;5.82;;;2.35;;
43152;SDS011;28756;49.064;9.290;2024-02-21T10:27:09;4.80;;;2.00;;
43152;SDS011;28756;49.064;9.290;2024-02-21T10:30:01;7.82;;;2.40;;
43152;SDS011;28756;49.064;9.290;2024-02-21T10:32:30;6.05;;;2.38;;
43152;SDS011;28756;49.064;9.290;2024-02-21T10:35:03;4.13;;;1.75;;
43152;SDS011;28756;49.064;9.290;2024-02-21T10:37:30;9.68;;;2.10;;
43152;SDS011;28756;49.064;9.290;2024-02-21T10:40:08;5.40;;;2.22;;
43152;SDS011;28756;49.064;9.290;2024-02-21T10:42:40;6.40;;;1.98;;
43152;SDS011;28756;49.064;9.290;2024-02-21T10:45:10;4.35;;;1.67;;
43152;SDS011;28756;49.064;9.290;2024-02-21T10:47:40;4.38;;;1.80;;
43152;SDS011;28756;49.064;9.290;2024-02-21T10:50:30;4.38;;;1.80;;
43152;SDS011;28756;49.064;9.290;2024-02-21T10:59:21;5.07;;;1.70;;
43152;SDS011;28756;49.064;9.290;2024-02-21T11:02:05;6.97;;;1.75;;
43152;SDS011;28756;49.064;9.290;2024-02-21T11:04:36;6.60;;;2.00;;
43152;SDS011;28756;49.064;9.290;2024-02-21T11:07:13;4.20;;;1.85;;
43152;SDS011;28756;49.064;9.290;2024-02-21T11:13:10;6.55;;;1.70;;
43152;SDS011;28756;49.064;9.290;2024-02-21T11:16:06;5.60;;;1.90;;
43152;SDS011;28756;49.064;9.290;2024-02-21T11:18:38;4.93;;;1.60;;
43152;SDS011;28756;49.064;9.290;2024-02-21T11:21:04;4.32;;;1.70;;
43152;SDS011;28756;49.064;9.290;2024-02-21T11:23:37;4.15;;;1.70;;
43152;SDS011;28756;49.064;9.290;2024-02-21T11:26:22;3.50;;;1.50;;
43152;SDS011;28756;49.064;9.290;2024-02-21T11:29:02;5.80;;;1.60;;
43152;SDS011;28756;49.064;9.290;2024-02-21T11:31:40;4.63;;;1.55;;
43152;SDS011;28756;49.064;9.290;2024-02-21T11:34:10;4.05;;;1.55;;
43152;SDS011;28756;49.064;9.290;2024-02-21T11:36:58;5.78;;;1.90;;
43152;SDS011;28756;49.064;9.290;2024-02-21T11:39:23;4.78;;;2.08;;
43152;SDS011;28756;49.064;9.290;2024-02-21T11:42:04;7.78;;;1.60;;
43152;SDS011;28756;49.064;9.290;2024-02-21T11:44:32;5.15;;;1.73;;
43152;SDS011;28756;49.064;9.290;2024-02-21T11:47:07;5.30;;;1.70;;
43152;SDS011;28756;49.064;9.290;2024-02-21T11:49:37;5.50;;;2.03;;
43152;SDS011;28756;49.064;9.290;2024-02-21T11:52:08;4.97;;;1.70;;
43152;SDS011;28756;49.064;9.290;2024-02-21T11:54:34;4.10;;;1.60;;
43152;SDS011;28756;49.064;9.290;2024-02-21T11:57:00;6.50;;;1.60;;
43152;SDS011;28756;49.064;9.290;2024-02-21T11:59:29;2.83;;;1.33;;
43152;SDS011;28756;49.064;9.290;2024-02-21T12:01:57;3.33;;;1.38;;
43152;SDS011;28756;49.064;9.290;2024-02-21T12:04:24;4.53;;;1.60;;
43152;SDS011;28756;49.064;9.290;2024-02-21T12:07:08;5.60;;;1.33;;
43152;SDS011;28756;49.064;9.290;2024-02-21T12:09:37;5.25;;;1.48;;
43152;SDS011;28756;49.064;9.290;2024-02-21T12:12:19;3.05;;;1.13;;
43152;SDS011;28756;49.064;9.290;2024-02-21T12:15:15;3.15;;;1.30;;
43152;SDS011;28756;49.064;9.290;2024-02-21T12:21:01;3.50;;;1.17;;
43152;SDS011;28756;49.064;9.290;2024-02-21T12:23:49;4.05;;;1.10;;
43152;SDS011;28756;49.064;9.290;2024-02-21T12:26:27;4.15;;;1.10;;
43152;SDS011;28756;49.064;9.290;2024-02-21T12:29:02;2.78;;;1.23;;
43152;SDS011;28756;49.064;9.290;2024-02-21T12:31:37;5.68;;;1.65;;
43152;SDS011;28756;49.064;9.290;2024-02-21T12:34:40;3.17;;;1.23;;
43152;SDS011;28756;49.064;9.290;2024-02-21T12:37:17;2.53;;;1.13;;
43152;SDS011;28756;49.064;9.290;2024-02-21T12:40:13;3.08;;;1.08;;
43152;SDS011;28756;49.064;9.290;2024-02-21T12:42:52;3.22;;;1.00;;
43152;SDS011;28756;49.064;9.290;2024-02-21T12:45:28;4.72;;;1.52;;
43152;SDS011;28756;49.064;9.290;2024-02-21T12:48:22;3.65;;;1.23;;
43152;SDS011;28756;49.064;9.290;2024-02-21T12:51:13;4.82;;;1.42;;
43152;SDS011;28756;49.064;9.290;2024-02-21T12:53:59;5.15;;;1.50;;
43152;SDS011;28756;49.064;9.290;2024-02-21T13:00:12;3.08;;;1.10;;
43152;SDS011;28756;49.064;9.290;2024-02-21T13:02:53;2.63;;;1.20;;
43152;SDS011;28756;49.064;9.290;2024-02-21T13:10:06;3.60;;;1.23;;
43152;SDS011;28756;49.064;9.290;2024-02-21T13:12:36;6.13;;;1.77;;
43152;SDS011;28756;49.064;9.290;2024-02-21T13:15:19;3.15;;;1.40;;
43152;SDS011;28756;49.064;9.290;2024-02-21T13:18:12;3.97;;;1.30;;
43152;SDS011;28756;49.064;9.290;2024-02-21T13:21:00;2.70;;;1.17;;
43152;SDS011;28756;49.064;9.290;2024-02-21T13:24:12;4.80;;;1.52;;
43152;SDS011;28756;49.064;9.290;2024-02-21T13:30:19;3.35;;;1.30;;
43152;SDS011;28756;49.064;9.290;2024-02-21T13:33:04;3.63;;;1.42;;
43152;SDS011;28756;49.064;9.290;2024-02-21T13:35:50;3.05;;;1.23;;
43152;SDS011;28756;49.064;9.290;2024-02-21T13:38:21;3.08;;;1.50;;
43152;SDS011;28756;49.064;9.290;2024-02-21T13:40:57;5.55;;;1.63;;
43152;SDS011;28756;49.064;9.290;2024-02-21T13:44:07;3.83;;;1.40;;
43152;SDS011;28756;49.064;9.290;2024-02-21T13:46:51;5.82;;;1.80;;
43152;SDS011;28756;49.064;9.290;2024-02-21T13:49:52;4.90;;;1.50;;
43152;SDS011;28756;49.064;9.290;2024-02-21T13:52:29;4.47;;;1.42;;
43152;SDS011;28756;49.064;9.290;2024-02-21T13:55:28;3.58;;;1.40;;
43152;SDS011;28756;49.064;9.290;2024-02-21T13:58:05;3.13;;;1.23;;
43152;SDS011;28756;49.064;9.290;2024-02-21T14:01:03;5.03;;;1.40;;
43152;SDS011;28756;49.064;9.290;2024-02-21T14:03:43;3.22;;;1.42;;
43152;SDS011;28756;49.064;9.290;2024-02-21T14:06:19;7.35;;;1.70;;
43152;SDS011;28756;49.064;9.290;2024-02-21T14:09:15;3.60;;;1.17;;
43152;SDS011;28756;49.064;9.290;2024-02-21T14:11:53;4.55;;;1.30;;
43152;SDS011;28756;49.064;9.290;2024-02-21T14:14:19;5.03;;;1.23;;
43152;SDS011;28756;49.064;9.290;2024-02-21T14:16:45;4.40;;;1.98;;
43152;SDS011;28756;49.064;9.290;2024-02-21T14:19:12;4.10;;;1.60;;
43152;SDS011;28756;49.064;9.290;2024-02-21T14:21:39;4.28;;;1.55;;
43152;SDS011;28756;49.064;9.290;2024-02-21T14:24:05;4.78;;;1.35;;
43152;SDS011;28756;49.064;9.290;2024-02-21T14:26:32;4.10;;;1.40;;
43152;SDS011;28756;49.064;9.290;2024-02-21T14:28:58;4.85;;;1.67;;
43152;SDS011;28756;49.064;9.290;2024-02-21T14:31:24;3.67;;;1.45;;
43152;SDS011;28756;49.064;9.290;2024-02-21T14:33:50;4.88;;;1.45;;
43152;SDS011;28756;49.064;9.290;2024-02-21T14:36:20;2.47;;;1.02;;
43152;SDS011;28756;49.064;9.290;2024-02-21T14:38:46;2.50;;;1.25;;
43152;SDS011;28756;49.064;9.290;2024-02-21T14:41:12;4.47;;;1.40;;
43152;SDS011;28756;49.064;9.290;2024-02-21T14:43:45;3.75;;;1.45;;
43152;SDS011;28756;49.064;9.290;2024-02-21T14:46:14;8.38;;;3.55;;
43152;SDS011;28756;49.064;9.290;2024-02-21T14:48:40;7.80;;;2.83;;
43152;SDS011;28756;49.064;9.290;2024-02-21T14:51:06;6.25;;;2.40;;
43152;SDS011;28756;49.064;9.290;2024-02-21T14:53:39;8.35;;;2.55;;
43152;SDS011;28756;49.064;9.290;2024-02-21T14:56:05;5.57;;;2.53;;
43152;SDS011;28756;49.064;9.290;2024-02-21T14:58:37;3.45;;;1.52;;
43152;SDS011;28756;49.064;9.290;2024-02-21T15:01:03;4.10;;;1.63;;
43152;SDS011;28756;49.064;9.290;2024-02-21T15:03:28;5.50;;;1.60;;
43152;SDS011;28756;49.064;9.290;2024-02-21T15:06:00;3.95;;;1.30;;
43152;SDS011;28756;49.064;9.290;2024-02-21T15:08:38;4.68;;;1.52;;
43152;SDS011;28756;49.064;9.290;2024-02-21T15:11:04;3.25;;;1.10;;
43152;SDS011;28756;49.064;9.290;2024-02-21T15:13:29;2.78;;;1.20;;
43152;SDS011;28756;49.064;9.290;2024-02-21T15:16:06;3.28;;;1.17;;
43152;SDS011;28756;49.064;9.290;2024-02-21T15:18:31;3.85;;;1.13;;
43152;SDS011;28756;49.064;9.290;2024-02-21T15:21:07;7.82;;;1.83;;
43152;SDS011;28756;49.064;9.290;2024-02-21T15:23:38;4.53;;;1.48;;
43152;SDS011;28756;49.064;9.290;2024-02-21T15:26:11;3.10;;;1.50;;
43152;SDS011;28756;49.064;9.290;2024-02-21T15:28:40;4.63;;;1.40;;
43152;SDS011;28756;49.064;9.290;2024-02-21T15:31:05;2.67;;;1.20;;
43152;SDS011;28756;49.064;9.290;2024-02-21T15:33:31;4.05;;;1.48;;
43152;SDS011;28756;49.064;9.290;2024-02-21T15:35:59;3.78;;;1.23;;
43152;SDS011;28756;49.064;9.290;2024-02-21T15:38:31;4.55;;;1.67;;
43152;SDS011;28756;49.064;9.290;2024-02-21T15:41:00;4.65;;;1.52;;
43152;SDS011;28756;49.064;9.290;2024-02-21T15:43:31;5.15;;;1.60;;